Time;durP1;ratioP1;P1;durP2;ratioP2;P2;SDS_P1;SDS_P2;PMS_P1;PMS_P2;Temp;Humidity;BMP_temperature;BMP_pressure;BME280_temperature;BME280_humidity;BME280_pressure;Samples;Min_cycle;Max_cycle;Signal;HPM_P1;HPM_P2
2022/06/04 00:00:58;;;;;;;20.45;3.08;;;40.30;19.90;;;;;;5050750;28;20032;-62
2022/06/04 00:03:27;;;;;;;13.77;3.35;;;40.20;19.90;;;;;;5017958;28;20017;-64
2022/06/04 00:05:56;;;;;;;24.85;3.33;;;40.00;19.60;;;;;;5051243;28;20132;-63
2022/06/04 00:08:22;;;;;;;13.98;3.15;;;39.90;19.90;;;;;;5051041;28;20020;-62
2022/06/04 00:16:24;;;;;;;15.85;3.80;;;39.70;20.50;;;;;;5052641;28;20098;-62
2022/06/04 00:18:50;;;;;;;22.95;3.38;;;39.60;20.40;;;;;;5050221;28;20025;-58
2022/06/04 00:21:17;;;;;;;18.95;3.00;;;39.50;20.10;;;;;;5049610;28;20021;-63
2022/06/04 00:23:43;;;;;;;20.33;3.03;;;39.50;20.10;;;;;;5050610;28;20021;-63
2022/06/04 00:26:13;;;;;;;18.63;3.03;;;39.50;20.30;;;;;;5051070;28;20075;-62
2022/06/04 00:28:40;;;;;;;14.10;2.50;;;39.30;20.00;;;;;;5033977;28;20029;-64
2022/06/04 00:31:07;;;;;;;20.50;2.85;;;39.30;20.10;;;;;;5050240;28;20099;-63
2022/06/04 00:33:34;;;;;;;10.73;2.40;;;39.30;19.70;;;;;;5048436;28;20025;-63
2022/06/04 00:36:01;;;;;;;17.23;3.60;;;39.30;20.30;;;;;;5049537;28;20418;-64
2022/06/04 00:38:30;;;;;;;16.20;2.60;;;39.40;20.40;;;;;;5059212;28;20029;-62
2022/06/04 00:41:14;;;;;;;11.00;2.58;;;39.30;19.70;;;;;;5049930;28;20433;-63
2022/06/04 00:44:19;;;;;;;21.65;2.90;;;39.20;20.20;;;;;;5048588;28;20036;-63
2022/06/04 00:47:06;;;;;;;25.40;3.60;;;39.10;19.90;;;;;;5012341;28;20055;-63
2022/06/04 00:49:33;;;;;;;16.45;2.85;;;39.00;20.10;;;;;;5031138;28;20044;-62
2022/06/04 00:52:00;;;;;;;19.55;2.63;;;39.00;20.20;;;;;;5047434;28;20062;-62
2022/06/04 00:54:27;;;;;;;18.75;2.50;;;38.90;20.00;;;;;;5050330;28;20032;-62
2022/06/04 00:57:19;;;;;;;22.73;2.90;;;38.70;20.00;;;;;;5049189;28;20383;-62
2022/06/04 01:00:13;;;;;;;17.95;3.20;;;38.60;19.90;;;;;;5046454;28;20086;-63
2022/06/04 01:03:02;;;;;;;18.17;3.03;;;38.60;20.20;;;;;;5032196;28;20571;-62
2022/06/04 01:05:49;;;;;;;24.67;3.13;;;38.50;20.00;;;;;;5047985;28;20029;-62
2022/06/04 01:08:52;;;;;;;22.83;3.35;;;38.40;20.30;;;;;;5066432;28;20053;-62
2022/06/04 01:12:09;;;;;;;22.30;3.22;;;38.20;20.50;;;;;;5048928;28;20414;-63
2022/06/04 01:14:37;;;;;;;15.93;3.25;;;38.20;20.70;;;;;;5051216;28;20036;-64
2022/06/04 01:17:18;;;;;;;24.30;3.97;;;38.10;21.00;;;;;;5052242;28;20017;-64
2022/06/04 01:20:06;;;;;;;17.25;3.67;;;38.10;21.50;;;;;;5049941;28;20036;-63
2022/06/04 01:22:41;;;;;;;17.65;3.65;;;38.10;21.60;;;;;;5048294;28;20039;-62
2022/06/04 01:25:41;;;;;;;19.60;3.33;;;37.90;21.80;;;;;;5049964;28;20090;-63
2022/06/04 01:28:11;;;;;;;30.35;3.30;;;37.70;21.80;;;;;;5049272;28;20374;-62
2022/06/04 01:30:47;;;;;;;20.15;3.78;;;37.50;22.00;;;;;;5048005;28;20029;-66
2022/06/04 01:33:37;;;;;;;24.30;3.03;;;37.40;22.30;;;;;;5048440;28;20032;-64
2022/06/04 01:36:10;;;;;;;34.05;4.10;;;37.30;22.40;;;;;;5032528;28;20040;-64
2022/06/04 01:38:50;;;;;;;25.60;3.95;;;37.30;22.80;;;;;;5049042;28;20454;-63
2022/06/04 01:41:30;;;;;;;25.67;3.72;;;37.20;22.70;;;;;;5033300;28;20053;-64
2022/06/04 01:44:02;;;;;;;27.17;4.07;;;37.10;22.70;;;;;;5047885;28;20116;-62
2022/06/04 01:46:31;;;;;;;29.85;4.80;;;37.10;22.60;;;;;;5048791;28;20024;-58
2022/06/04 01:49:31;;;;;;;31.25;4.25;;;37.00;22.70;;;;;;5048699;28;20032;-62
2022/06/04 01:52:04;;;;;;;30.70;4.28;;;36.90;23.00;;;;;;5001453;28;20044;-59
2022/06/04 01:54:37;;;;;;;19.55;3.70;;;36.80;23.20;;;;;;5033744;28;20043;-63
2022/06/04 01:57:26;;;;;;;18.67;4.63;;;36.70;23.30;;;;;;5047380;28;20131;-62
2022/06/04 02:00:00;;;;;;;18.70;4.63;;;36.60;23.20;;;;;;5048166;28;20111;-62
2022/06/04 02:02:42;;;;;;;13.57;3.95;;;36.50;22.70;;;;;;5047526;28;20124;-62
2022/06/04 02:05:19;;;;;;;21.83;5.15;;;36.50;21.70;;;;;;5047585;28;20085;-63
2022/06/04 02:07:49;;;;;;;17.55;5.07;;;36.30;22.70;;;;;;5048199;28;20557;-57
2022/06/04 02:10:20;;;;;;;22.17;5.63;;;36.20;22.90;;;;;;5048718;28;20035;-62
2022/06/04 02:12:48;;;;;;;27.65;5.50;;;36.10;22.90;;;;;;5048628;28;20034;-62
2022/06/04 02:15:19;;;;;;;30.77;5.63;;;36.00;23.30;;;;;;5049311;28;20117;-62
2022/06/04 02:17:50;;;;;;;26.08;5.15;;;35.90;23.90;;;;;;5032982;28;20028;-62
2022/06/04 02:20:17;;;;;;;22.52;4.72;;;35.80;24.40;;;;;;5031332;28;20048;-62
2022/06/04 02:22:44;;;;;;;28.65;4.25;;;35.60;24.40;;;;;;5049034;28;20083;-62
2022/06/04 02:25:12;;;;;;;20.98;4.18;;;35.50;24.80;;;;;;5031310;28;20129;-62
2022/06/04 02:27:40;;;;;;;18.70;4.28;;;35.40;25.00;;;;;;5048186;28;20040;-62
2022/06/04 02:30:10;;;;;;;18.75;3.70;;;35.40;25.00;;;;;;5048109;28;20132;-61
2022/06/04 02:32:56;;;;;;;26.90;4.78;;;35.30;25.10;;;;;;5048659;28;20489;-62
2022/06/04 02:35:39;;;;;;;24.17;4.23;;;35.20;25.30;;;;;;5047790;28;20477;-62
2022/06/04 02:38:24;;;;;;;17.30;4.28;;;35.20;25.20;;;;;;5047572;28;20044;-55
2022/06/04 02:41:15;;;;;;;16.27;3.42;;;35.10;25.80;;;;;;5047997;28;20584;-62
2022/06/04 02:43:48;;;;;;;39.72;3.90;;;34.90;25.10;;;;;;5047747;28;20071;-61
2022/06/04 02:46:30;;;;;;;25.25;3.67;;;34.90;23.20;;;;;;5050791;28;20510;-56
2022/06/04 02:49:10;;;;;;;27.65;4.63;;;34.90;23.30;;;;;;5047007;28;20063;-57
2022/06/04 02:51:40;;;;;;;26.45;4.18;;;34.90;24.40;;;;;;5047322;28;20047;-63
2022/06/04 02:54:33;;;;;;;19.15;4.13;;;34.70;24.70;;;;;;5044415;28;20053;-62
2022/06/04 02:57:02;;;;;;;28.00;3.90;;;34.70;25.00;;;;;;5040023;28;20154;-58
2022/06/04 02:59:33;;;;;;;23.70;3.58;;;34.60;23.10;;;;;;5047659;28;20050;-56
2022/06/04 03:02:02;;;;;;;37.55;4.18;;;34.50;23.00;;;;;;5048886;28;20123;-62
2022/06/04 03:04:28;;;;;;;25.42;3.45;;;34.50;22.30;;;;;;5047915;28;20045;-56
2022/06/04 03:07:05;;;;;;;22.20;2.95;;;34.40;22.30;;;;;;5048371;28;20048;-62
2022/06/04 03:09:33;;;;;;;24.10;3.47;;;34.30;22.30;;;;;;5033898;28;20043;-61
2022/06/04 03:12:00;;;;;;;30.02;3.45;;;34.20;22.50;;;;;;5041467;28;20053;-63
2022/06/04 03:14:27;;;;;;;11.65;2.42;;;34.20;22.80;;;;;;5050901;28;20923;-62
2022/06/04 03:16:53;;;;;;;21.58;2.60;;;34.10;22.40;;;;;;5049081;28;20160;-62
2022/06/04 03:19:20;;;;;;;24.80;3.25;;;34.10;22.50;;;;;;5052300;28;20077;-63
2022/06/04 03:21:46;;;;;;;17.10;2.60;;;34.00;22.50;;;;;;5049679;28;20066;-63
2022/06/04 03:24:14;;;;;;;19.88;2.55;;;34.00;22.70;;;;;;5044743;28;20380;-64
2022/06/04 03:26:41;;;;;;;20.73;2.40;;;33.90;22.40;;;;;;5047382;28;20047;-63
2022/06/04 03:29:08;;;;;;;14.07;2.83;;;33.90;22.60;;;;;;5044418;28;20067;-63
2022/06/04 03:31:34;;;;;;;11.95;1.90;;;33.80;22.70;;;;;;5046885;28;20039;-63
2022/06/04 03:34:02;;;;;;;18.00;2.15;;;33.80;22.50;;;;;;5031619;28;20093;-63
2022/06/04 03:36:29;;;;;;;12.55;1.90;;;33.70;22.50;;;;;;5048035;28;20057;-64
2022/06/04 03:38:57;;;;;;;18.27;1.98;;;33.60;23.10;;;;;;5045762;28;20581;-62
2022/06/04 03:41:24;;;;;;;8.30;1.80;;;33.60;22.50;;;;;;5046921;28;20158;-64
2022/06/04 03:43:54;;;;;;;14.82;2.35;;;33.50;22.50;;;;;;5047905;28;20153;-64
2022/06/04 03:46:24;;;;;;;8.43;1.75;;;33.50;22.60;;;;;;5047204;28;20051;-64
2022/06/04 03:48:55;;;;;;;17.27;2.45;;;33.40;22.80;;;;;;5031132;28;20056;-66
2022/06/04 03:51:22;;;;;;;7.65;2.30;;;33.30;22.90;;;;;;5048185;28;20099;-63
2022/06/04 03:53:48;;;;;;;9.80;2.30;;;33.20;23.00;;;;;;5041691;28;20140;-64
2022/06/04 03:56:15;;;;;;;8.10;2.63;;;33.20;23.10;;;;;;5047678;28;20046;-63
2022/06/04 03:58:41;;;;;;;10.50;2.40;;;33.10;23.10;;;;;;5046455;28;20499;-64
2022/06/04 04:01:15;;;;;;;14.82;2.42;;;33.10;23.30;;;;;;5045779;28;20067;-66
2022/06/04 04:03:42;;;;;;;19.45;3.20;;;33.00;23.30;;;;;;5045842;28;20049;-64
2022/06/04 04:06:15;;;;;;;7.60;2.15;;;32.90;23.40;;;;;;5046233;28;20151;-64
2022/06/04 04:08:41;;;;;;;13.85;3.00;;;32.90;23.60;;;;;;5046763;28;20142;-63
2022/06/04 04:11:17;;;;;;;7.13;2.50;;;32.80;23.60;;;;;;5047172;28;20101;-64
2022/06/04 04:13:44;;;;;;;10.02;2.40;;;32.70;23.70;;;;;;5029931;28;20054;-64
2022/06/04 04:16:13;;;;;;;13.20;2.30;;;32.70;23.90;;;;;;5048092;28;20060;-70
2022/06/04 04:18:39;;;;;;;14.95;2.92;;;32.70;24.10;;;;;;5048363;28;20075;-68
2022/06/04 04:21:15;;;;;;;14.43;2.80;;;32.60;24.20;;;;;;5046856;28;20073;-66
2022/06/04 04:23:43;;;;;;;13.52;2.95;;;32.60;24.30;;;;;;5029737;28;20063;-68
2022/06/04 04:26:11;;;;;;;15.10;2.55;;;32.50;24.40;;;;;;5048366;28;20083;-66
2022/06/04 04:28:38;;;;;;;14.50;2.70;;;32.40;24.70;;;;;;5052617;28;20079;-65
2022/06/04 04:31:19;;;;;;;15.43;3.35;;;32.40;25.00;;;;;;5050828;28;20073;-68
2022/06/04 04:33:46;;;;;;;7.75;3.03;;;32.30;25.10;;;;;;5053215;28;20057;-68
2022/06/04 04:36:12;;;;;;;21.08;3.58;;;32.30;25.30;;;;;;5033766;28;20054;-66
2022/06/04 04:38:39;;;;;;;14.77;3.15;;;32.20;25.40;;;;;;5050698;28;20078;-67
2022/06/04 04:41:11;;;;;;;12.57;2.90;;;32.10;25.40;;;;;;5049625;28;20062;-67
2022/06/04 04:43:37;;;;;;;16.13;3.00;;;32.00;25.50;;;;;;5049387;28;20501;-67
2022/06/04 04:46:07;;;;;;;15.52;3.15;;;32.00;25.50;;;;;;5051537;28;20574;-67
2022/06/04 04:48:33;;;;;;;14.23;2.58;;;31.90;25.60;;;;;;5053057;28;20775;-67
2022/06/04 04:51:02;;;;;;;15.38;3.22;;;31.90;25.70;;;;;;5049959;28;20529;-64
2022/06/04 04:53:28;;;;;;;19.92;3.33;;;31.90;25.80;;;;;;5049229;28;20568;-67
2022/06/04 04:55:55;;;;;;;18.45;3.40;;;31.80;26.00;;;;;;5048620;28;20096;-63
2022/06/04 04:58:21;;;;;;;11.43;3.03;;;31.80;26.10;;;;;;5050074;28;20585;-64
2022/06/04 05:00:48;;;;;;;13.45;2.72;;;31.70;26.10;;;;;;5033099;28;20073;-66
2022/06/04 05:03:14;;;;;;;10.85;2.85;;;31.60;26.20;;;;;;5049492;28;20046;-65
2022/06/04 05:05:40;;;;;;;15.73;4.60;;;31.60;26.20;;;;;;5049865;28;20063;-65
2022/06/04 05:08:07;;;;;;;19.17;3.92;;;31.50;26.00;;;;;;5050686;28;20051;-67
2022/06/04 05:10:33;;;;;;;14.88;3.40;;;31.40;26.00;;;;;;5050846;28;20408;-65
2022/06/04 05:13:00;;;;;;;18.27;3.28;;;31.40;26.10;;;;;;5050532;28;20072;-65
2022/06/04 05:15:27;;;;;;;16.17;2.90;;;31.40;26.20;;;;;;5050486;28;20611;-66
2022/06/04 05:17:53;;;;;;;17.13;3.13;;;31.30;26.20;;;;;;5050336;28;20428;-64
2022/06/04 05:20:19;;;;;;;13.77;3.35;;;31.30;26.20;;;;;;5049342;28;20072;-63
2022/06/04 05:22:46;;;;;;;10.63;2.65;;;31.20;26.20;;;;;;5035732;28;20140;-63
2022/06/04 05:25:13;;;;;;;16.95;3.20;;;31.20;26.40;;;;;;5055283;28;20049;-63
2022/06/04 05:27:39;;;;;;;20.80;2.70;;;31.10;26.10;;;;;;5039211;28;20055;-63
2022/06/04 05:30:06;;;;;;;13.50;2.20;;;31.10;26.40;;;;;;5050155;28;20072;-65
2022/06/04 05:32:33;;;;;;;13.63;2.17;;;31.00;26.30;;;;;;5050275;28;20094;-64
2022/06/04 05:34:59;;;;;;;13.48;2.15;;;30.90;26.30;;;;;;5050515;28;20087;-62
2022/06/04 05:37:25;;;;;;;10.43;2.38;;;30.90;26.30;;;;;;5050441;28;20072;-63
2022/06/04 05:39:52;;;;;;;15.73;2.65;;;30.90;26.40;;;;;;5048835;28;20197;-63
2022/06/04 05:42:18;;;;;;;7.65;2.50;;;30.90;26.40;;;;;;5049659;28;20096;-63
2022/06/04 05:44:44;;;;;;;15.60;3.05;;;30.80;26.20;;;;;;5050937;28;20147;-63
2022/06/04 05:47:11;;;;;;;16.55;3.40;;;30.80;26.20;;;;;;5048456;28;20069;-64
2022/06/04 05:49:37;;;;;;;11.65;3.38;;;30.80;26.00;;;;;;5049427;28;20550;-64
2022/06/04 05:52:04;;;;;;;10.45;2.45;;;30.80;26.10;;;;;;5049259;28;20091;-64
2022/06/04 05:54:30;;;;;;;14.30;2.53;;;30.70;26.20;;;;;;5049256;28;20127;-64
2022/06/04 05:56:57;;;;;;;13.93;2.70;;;30.60;26.40;;;;;;5032861;28;20058;-63
2022/06/04 05:59:23;;;;;;;12.45;2.63;;;30.60;26.60;;;;;;5032859;28;20079;-64
2022/06/04 06:01:50;;;;;;;12.32;2.83;;;30.60;26.70;;;;;;5049090;28;20078;-63
2022/06/04 06:04:19;;;;;;;15.98;2.25;;;30.40;26.90;;;;;;5051910;28;20079;-63
2022/06/04 06:06:48;;;;;;;7.63;2.38;;;30.40;27.10;;;;;;5049579;28;20083;-63
2022/06/04 06:09:17;;;;;;;11.63;2.92;;;30.30;27.00;;;;;;5048942;28;20659;-65
2022/06/04 06:11:45;;;;;;;9.77;2.50;;;30.40;26.90;;;;;;5049592;28;20060;-63
2022/06/04 06:14:12;;;;;;;12.95;3.25;;;30.30;26.80;;;;;;5050069;28;20094;-64
2022/06/04 06:16:42;;;;;;;9.93;2.83;;;30.20;26.80;;;;;;5049707;28;20520;-65
2022/06/04 06:19:08;;;;;;;7.43;1.92;;;30.20;26.70;;;;;;5032691;28;20421;-63
2022/06/04 06:21:36;;;;;;;7.55;1.88;;;30.10;26.80;;;;;;5047911;28;20094;-64
2022/06/04 06:24:04;;;;;;;9.70;2.65;;;30.20;26.90;;;;;;5050463;28;20083;-64
2022/06/04 06:26:39;;;;;;;18.15;2.78;;;30.10;26.90;;;;;;5050188;28;20072;-62
2022/06/04 06:29:06;;;;;;;10.65;2.20;;;30.00;27.10;;;;;;5047564;28;20533;-66
2022/06/04 06:31:34;;;;;;;19.83;2.58;;;30.00;27.10;;;;;;5049939;28;20406;-63
2022/06/04 06:34:01;;;;;;;12.25;2.35;;;30.00;27.30;;;;;;5053631;28;20974;-63
2022/06/04 06:36:28;;;;;;;9.10;2.10;;;29.90;27.30;;;;;;5049022;28;20083;-63
2022/06/04 06:38:54;;;;;;;8.45;2.45;;;29.90;27.30;;;;;;5050415;28;20083;-63
2022/06/04 06:41:24;;;;;;;20.67;2.60;;;29.80;27.50;;;;;;5048969;28;20074;-64
2022/06/04 06:43:52;;;;;;;11.73;2.58;;;29.80;27.60;;;;;;5050070;28;20540;-64
2022/06/04 06:46:25;;;;;;;15.27;2.72;;;29.60;27.70;;;;;;5049881;28;20532;-61
2022/06/04 06:48:57;;;;;;;14.18;2.65;;;29.60;27.80;;;;;;5032021;28;20423;-63
2022/06/04 06:51:30;;;;;;;10.18;2.10;;;29.50;27.80;;;;;;5046773;28;20072;-66
2022/06/04 06:53:57;;;;;;;20.48;2.45;;;29.50;27.90;;;;;;5048927;28;20081;-66
2022/06/04 06:56:32;;;;;;;10.73;2.30;;;29.40;27.90;;;;;;5048686;28;20460;-65
2022/06/04 06:59:00;;;;;;;13.20;2.85;;;29.40;27.90;;;;;;5047636;28;20068;-67
2022/06/04 07:01:28;;;;;;;9.85;1.90;;;29.40;27.80;;;;;;5051847;28;20089;-67
2022/06/04 07:03:56;;;;;;;8.73;2.30;;;29.30;27.80;;;;;;5051303;28;20084;-64
2022/06/04 07:06:32;;;;;;;13.68;2.35;;;29.30;27.90;;;;;;5032896;28;20081;-66
2022/06/04 07:09:00;;;;;;;8.40;2.15;;;29.30;27.80;;;;;;5046703;28;20068;-65
2022/06/04 07:11:27;;;;;;;6.15;2.13;;;29.20;27.80;;;;;;5047283;28;20083;-67
2022/06/04 07:13:53;;;;;;;9.55;2.10;;;29.20;27.70;;;;;;5047149;28;20074;-65
2022/06/04 07:16:20;;;;;;;8.60;2.20;;;29.20;27.70;;;;;;5030289;28;20559;-65
2022/06/04 07:18:46;;;;;;;8.32;2.13;;;29.10;27.70;;;;;;5048278;28;20430;-68
2022/06/04 07:21:13;;;;;;;5.70;2.03;;;29.10;27.50;;;;;;5046327;28;20090;-67
2022/06/04 07:23:40;;;;;;;6.60;1.88;;;29.10;27.40;;;;;;5047167;28;20111;-67
2022/06/04 07:26:07;;;;;;;18.00;1.85;;;29.10;27.30;;;;;;5049120;28;20441;-66
2022/06/04 07:28:36;;;;;;;7.63;1.75;;;29.10;27.70;;;;;;5048016;28;20071;-64
2022/06/04 07:31:08;;;;;;;7.57;2.47;;;29.10;27.20;;;;;;5046504;28;20082;-65
2022/06/04 07:33:35;;;;;;;10.85;2.50;;;29.00;27.10;;;;;;5047350;28;20085;-65
2022/06/04 07:36:02;;;;;;;10.15;2.22;;;29.10;27.20;;;;;;5031002;28;20425;-65
2022/06/04 07:38:29;;;;;;;9.88;2.97;;;29.00;27.00;;;;;;5046870;28;20081;-65
2022/06/04 07:40:55;;;;;;;10.38;2.90;;;29.00;27.10;;;;;;5046382;28;20504;-65
2022/06/04 07:43:22;;;;;;;9.43;2.70;;;29.00;27.10;;;;;;5046932;28;20098;-64
2022/06/04 07:45:48;;;;;;;10.48;2.33;;;28.90;27.00;;;;;;5047383;28;20078;-66
2022/06/04 07:48:15;;;;;;;9.65;2.80;;;29.00;27.00;;;;;;5047287;28;20088;-64
2022/06/04 07:50:42;;;;;;;8.05;2.22;;;29.00;26.90;;;;;;5047588;28;20081;-65
2022/06/04 07:53:08;;;;;;;10.82;2.20;;;28.90;26.90;;;;;;5046786;28;20156;-66
2022/06/04 07:55:39;;;;;;;8.35;2.28;;;28.90;27.00;;;;;;5046718;28;20071;-65
2022/06/04 07:58:06;;;;;;;11.85;1.80;;;28.90;27.00;;;;;;5045959;28;20146;-65
2022/06/04 08:00:37;;;;;;;6.97;1.65;;;28.90;26.80;;;;;;5030397;28;20166;-65
2022/06/04 08:03:04;;;;;;;7.00;1.70;;;28.90;26.90;;;;;;5050696;28;20060;-67
2022/06/04 08:05:31;;;;;;;8.95;1.40;;;28.90;27.20;;;;;;5050237;28;20100;-65
2022/06/04 08:07:57;;;;;;;5.20;1.75;;;28.90;27.40;;;;;;5033827;28;20080;-65
2022/06/04 08:10:23;;;;;;;9.10;1.45;;;28.80;27.70;;;;;;5050013;28;20283;-65
2022/06/04 08:13:00;;;;;;;8.90;2.08;;;28.80;27.70;;;;;;5049397;28;20444;-66
2022/06/04 08:15:27;;;;;;;8.77;2.13;;;28.80;27.80;;;;;;5067487;28;20069;-65
2022/06/04 08:17:53;;;;;;;9.57;2.05;;;28.70;27.40;;;;;;5051133;28;20072;-65
2022/06/04 08:20:21;;;;;;;12.20;2.13;;;28.70;27.70;;;;;;5052904;28;20078;-65
2022/06/04 08:22:48;;;;;;;8.70;2.20;;;28.60;28.00;;;;;;5049699;28;20087;-65
2022/06/04 08:25:17;;;;;;;11.85;2.05;;;28.60;28.40;;;;;;5051845;28;20066;-66
2022/06/04 08:27:44;;;;;;;12.75;2.30;;;28.40;28.30;;;;;;5049529;28;20065;-65
2022/06/04 08:30:12;;;;;;;28.52;4.38;;;28.40;28.20;;;;;;5050744;28;20600;-63
2022/06/04 08:32:39;;;;;;;36.55;6.30;;;28.30;30.90;;;;;;5051000;28;20105;-67
2022/06/04 08:35:06;;;;;;;39.65;7.57;;;28.40;37.10;;;;;;5050518;28;20098;-66
2022/06/04 08:37:34;;;;;;;44.72;10.18;;;28.50;38.90;;;;;;5050073;28;20082;-66
2022/06/04 08:40:01;;;;;;;44.67;9.82;;;28.60;44.20;;;;;;5049741;28;20111;-67
2022/06/04 08:42:42;;;;;;;62.58;11.02;;;28.80;45.70;;;;;;5048706;28;20439;-67
2022/06/04 08:45:11;;;;;;;62.55;12.30;;;28.70;46.10;;;;;;5036028;28;20084;-64
2022/06/04 08:47:46;;;;;;;55.58;11.50;;;28.60;47.30;;;;;;5050410;28;20123;-67
2022/06/04 08:50:30;;;;;;;45.17;11.02;;;28.60;48.40;;;;;;5016809;28;20076;-67
2022/06/04 08:53:00;;;;;;;48.03;12.50;;;28.70;49.50;;;;;;5050054;28;20073;-68
2022/06/04 08:58:48;;;;;;;41.67;10.75;;;28.80;50.80;;;;;;5048509;28;20105;-68
2022/06/04 09:01:18;;;;;;;37.67;10.50;;;28.80;50.30;;;;;;5048876;28;20107;-68
2022/06/04 09:04:12;;;;;;;44.10;11.50;;;28.80;50.40;;;;;;5065573;28;20139;-68
2022/06/04 09:06:48;;;;;;;45.67;14.32;;;28.60;51.80;;;;;;5050766;28;20120;-67
2022/06/04 09:09:22;;;;;;;45.97;13.57;;;28.70;52.80;;;;;;5049905;28;20536;-67
2022/06/04 09:12:10;;;;;;;53.78;14.40;;;28.60;53.60;;;;;;5037071;28;20092;-67
2022/06/04 09:14:39;;;;;;;57.78;15.38;;;28.30;54.70;;;;;;5049952;28;20083;-68
2022/06/04 09:17:52;;;;;;;58.08;15.18;;;28.30;55.20;;;;;;5033933;28;20161;-67
2022/06/04 09:20:38;;;;;;;52.13;14.80;;;28.30;55.40;;;;;;5019827;28;20453;-68
2022/06/04 09:23:13;;;;;;;53.17;14.57;;;28.40;55.80;;;;;;5033109;28;20097;-66
2022/06/04 09:25:50;;;;;;;51.13;13.57;;;28.30;55.90;;;;;;5049374;28;20066;-67
2022/06/04 09:28:35;;;;;;;47.55;14.60;;;28.10;56.90;;;;;;5050702;28;20445;-66
2022/06/04 09:31:23;;;;;;;60.72;13.88;;;27.90;58.10;;;;;;5034439;28;20156;-67
2022/06/04 09:33:57;;;;;;;46.30;11.63;;;27.90;58.50;;;;;;5047321;28;20404;-67
2022/06/04 09:36:34;;;;;;;45.20;10.77;;;27.70;59.40;;;;;;5050884;28;20144;-67
2022/06/04 09:39:06;;;;;;;43.70;10.15;;;27.60;60.10;;;;;;5048687;28;20125;-67
2022/06/04 09:41:34;;;;;;;58.70;10.55;;;27.50;61.60;;;;;;5048151;28;20115;-68
2022/06/04 09:44:15;;;;;;;49.50;10.98;;;27.30;62.70;;;;;;5032503;28;20158;-67
2022/06/04 09:46:48;;;;;;;46.13;9.88;;;27.20;63.80;;;;;;5051525;28;20090;-69
2022/06/04 09:49:37;;;;;;;39.97;10.15;;;27.20;65.00;;;;;;5048118;28;20070;-67
2022/06/04 09:52:30;;;;;;;50.03;10.45;;;27.00;65.70;;;;;;5047955;28;20127;-67
2022/06/04 09:54:59;;;;;;;43.75;10.02;;;26.80;66.40;;;;;;5046587;28;20122;-69
2022/06/04 09:57:33;;;;;;;49.28;10.85;;;26.90;66.70;;;;;;5046634;28;20071;-67
2022/06/04 10:00:00;;;;;;;42.20;10.85;;;26.90;66.60;;;;;;5048025;28;20187;-65
2022/06/04 10:02:27;;;;;;;55.53;10.90;;;26.90;67.20;;;;;;5049743;28;20087;-67
2022/06/04 10:05:07;;;;;;;54.22;9.90;;;26.80;65.80;;;;;;5031600;28;20553;-65
2022/06/04 10:07:36;;;;;;;44.20;9.43;;;26.80;65.10;;;;;;5032686;28;20147;-67
2022/06/04 10:10:29;;;;;;;59.67;9.68;;;26.80;64.40;;;;;;5048942;28;20088;-66
2022/06/04 10:15:49;;;;;;;36.47;9.63;;;26.60;63.20;;;;;;5051410;28;20086;-66
2022/06/04 10:18:29;;;;;;;34.00;8.88;;;26.60;62.30;;;;;;5048329;28;20067;-66
2022/06/04 10:21:26;;;;;;;37.75;9.68;;;26.50;62.40;;;;;;5048929;28;20093;-66
2022/06/04 10:23:55;;;;;;;43.10;11.70;;;26.50;61.80;;;;;;5049517;28;20107;-66
2022/06/04 10:26:46;;;;;;;38.30;12.32;;;26.50;62.10;;;;;;5034931;28;20071;-67
2022/06/04 10:29:40;;;;;;;44.45;12.20;;;26.50;62.30;;;;;;5060483;28;20075;-66
2022/06/04 10:32:16;;;;;;;50.88;14.75;;;26.50;62.80;;;;;;5047612;28;20491;-65
2022/06/04 10:35:02;;;;;;;54.20;16.13;;;26.50;63.40;;;;;;5049981;28;20079;-64
2022/06/04 10:38:05;;;;;;;52.72;17.33;;;26.40;63.60;;;;;;5027877;28;20103;-67
2022/06/04 10:40:53;;;;;;;63.13;21.42;;;26.40;63.80;;;;;;5031413;28;20082;-66
2022/06/04 10:43:42;;;;;;;66.68;21.45;;;26.30;63.20;;;;;;5057740;28;20187;-66
2022/06/04 10:46:12;;;;;;;69.15;24.08;;;26.20;62.80;;;;;;5047749;28;20523;-67
2022/06/04 10:48:47;;;;;;;80.28;26.20;;;26.10;62.70;;;;;;5048667;28;20072;-65
2022/06/04 10:51:26;;;;;;;77.05;26.48;;;26.10;63.40;;;;;;5048378;28;20170;-64
2022/06/04 10:53:59;;;;;;;70.93;24.63;;;26.10;63.60;;;;;;5048355;28;20075;-67
2022/06/04 10:56:46;;;;;;;74.95;23.48;;;26.00;63.70;;;;;;5047435;28;20120;-66
2022/06/04 10:59:32;;;;;;;72.65;23.17;;;25.90;64.30;;;;;;5048569;28;20080;-67
2022/06/04 11:02:17;;;;;;;76.28;24.10;;;25.80;65.00;;;;;;5048441;28;20542;-66
2022/06/04 11:04:52;;;;;;;71.30;24.92;;;25.80;65.30;;;;;;5031937;28;20088;-66
2022/06/04 11:07:32;;;;;;;67.65;23.30;;;25.70;65.80;;;;;;5033042;28;20086;-66
2022/06/04 11:09:59;;;;;;;63.08;21.13;;;25.70;66.20;;;;;;5029535;28;20438;-66
2022/06/04 11:12:57;;;;;;;61.15;19.70;;;25.50;66.90;;;;;;5047497;28;20098;-66
2022/06/04 11:15:31;;;;;;;49.65;18.90;;;25.60;67.70;;;;;;5047220;28;20180;-66
2022/06/04 11:18:32;;;;;;;66.82;20.77;;;25.60;67.40;;;;;;5048504;28;20080;-67
2022/06/04 11:21:11;;;;;;;71.05;22.60;;;25.60;67.40;;;;;;5037610;28;20158;-67
2022/06/04 11:23:54;;;;;;;55.08;19.25;;;25.70;67.10;;;;;;5047770;28;20434;-67
2022/06/04 11:26:43;;;;;;;57.42;20.27;;;25.60;67.10;;;;;;5048350;28;20103;-67
2022/06/04 11:29:12;;;;;;;57.17;19.40;;;25.40;66.90;;;;;;5048112;28;20492;-67
2022/06/04 11:31:57;;;;;;;57.25;19.27;;;25.40;66.90;;;;;;5048992;28;20068;-66
2022/06/04 11:34:35;;;;;;;53.08;20.05;;;25.40;65.80;;;;;;5050673;28;20538;-67
2022/06/04 11:37:28;;;;;;;45.83;14.27;;;25.40;65.50;;;;;;5048723;28;20080;-68
2022/06/04 11:40:23;;;;;;;37.42;11.02;;;25.40;63.80;;;;;;5052279;28;20076;-66
2022/06/04 11:42:51;;;;;;;37.45;10.98;;;25.10;62.40;;;;;;5051444;28;20486;-68
2022/06/04 11:45:33;;;;;;;37.80;10.57;;;25.20;63.80;;;;;;5051774;28;20076;-67
2022/06/04 11:48:30;;;;;;;39.05;11.40;;;25.30;62.50;;;;;;5035943;28;20134;-67
2022/06/04 11:51:08;;;;;;;37.55;9.98;;;25.20;61.20;;;;;;5051044;28;20446;-67
2022/06/04 11:53:44;;;;;;;36.25;9.20;;;25.20;60.90;;;;;;5052032;28;20100;-67
2022/06/04 11:56:53;;;;;;;29.17;9.30;;;25.00;61.10;;;;;;5053751;28;20878;-67
2022/06/04 11:59:53;;;;;;;41.00;9.20;;;25.10;60.60;;;;;;5052861;28;20175;-68
2022/06/04 12:02:31;;;;;;;35.67;10.38;;;25.10;60.20;;;;;;5058203;28;20146;-64
2022/06/04 12:05:27;;;;;;;46.33;11.68;;;25.10;60.10;;;;;;5057473;28;20079;-68
2022/06/04 12:07:55;;;;;;;37.55;13.70;;;25.10;60.30;;;;;;5052366;28;20064;-70
2022/06/04 12:10:42;;;;;;;46.53;14.45;;;25.00;60.40;;;;;;5051596;28;20067;-67
2022/06/04 12:13:24;;;;;;;48.17;15.00;;;25.10;61.50;;;;;;5052428;28;20511;-68
2022/06/04 12:16:12;;;;;;;45.70;15.48;;;25.10;60.20;;;;;;5053511;28;20104;-68
2022/06/04 12:19:04;;;;;;;55.35;18.17;;;25.10;60.00;;;;;;5052349;28;20441;-67
2022/06/04 12:24:35;;;;;;;54.28;17.55;;;25.00;59.60;;;;;;5051805;28;20096;-67
2022/06/04 12:27:30;;;;;;;63.10;20.55;;;25.00;59.50;;;;;;5052436;28;20514;-64
2022/06/04 12:30:05;;;;;;;78.97;29.63;;;25.00;59.40;;;;;;5051325;28;20077;-66
2022/06/04 12:32:35;;;;;;;87.00;34.42;;;25.00;59.40;;;;;;5050994;28;20505;-66
2022/06/04 12:35:15;;;;;;;81.22;27.60;;;25.00;59.20;;;;;;5055413;28;20100;-66
2022/06/04 12:38:10;;;;;;;64.07;20.65;;;24.90;58.90;;;;;;5051482;28;20632;-68
2022/06/04 12:40:39;;;;;;;49.00;16.20;;;24.90;58.50;;;;;;5050529;28;20083;-67
2022/06/04 12:43:19;;;;;;;56.45;16.48;;;24.80;58.20;;;;;;5050839;28;20111;-65
2022/06/04 12:45:52;;;;;;;53.13;14.45;;;24.80;58.10;;;;;;5052356;28;20075;-66
2022/06/04 12:48:55;;;;;;;42.72;14.32;;;24.80;58.40;;;;;;5053022;28;20543;-64
2022/06/04 12:51:40;;;;;;;40.78;12.80;;;24.70;58.20;;;;;;5050501;28;20191;-66
2022/06/04 12:54:31;;;;;;;46.65;13.48;;;24.60;58.10;;;;;;5052672;28;20526;-68
2022/06/04 12:57:38;;;;;;;46.63;12.43;;;24.70;57.90;;;;;;5053574;28;20162;-65
2022/06/04 13:00:54;;;;;;;48.53;13.07;;;24.70;57.60;;;;;;5035779;28;20091;-66
2022/06/04 13:03:29;;;;;;;49.90;12.75;;;24.70;57.50;;;;;;5037857;28;20080;-65
2022/06/04 13:06:21;;;;;;;41.50;12.10;;;24.80;57.50;;;;;;5051253;28;20068;-65
2022/06/04 13:09:29;;;;;;;45.85;13.25;;;24.80;57.30;;;;;;5051429;28;20411;-65
2022/06/04 13:12:09;;;;;;;39.33;10.85;;;24.80;57.60;;;;;;5021930;28;20082;-66
2022/06/04 13:14:54;;;;;;;45.95;10.70;;;24.80;58.10;;;;;;5050204;28;20542;-66
2022/06/04 13:17:43;;;;;;;39.85;10.25;;;24.80;58.10;;;;;;5051635;28;20069;-65
2022/06/04 13:20:58;;;;;;;43.60;10.38;;;24.90;58.20;;;;;;5049950;28;20085;-68
2022/06/04 13:23:30;;;;;;;51.38;13.27;;;24.80;58.50;;;;;;4972785;28;20078;-66
2022/06/04 13:26:15;;;;;;;51.25;12.77;;;24.80;59.40;;;;;;4974779;28;20129;-66
2022/06/04 13:28:44;;;;;;;60.67;13.85;;;24.90;60.30;;;;;;4990015;28;20104;-65